Time;durP1;ratioP1;P1;durP2;ratioP2;P2;SDS_P1;SDS_P2;PMS_P1;PMS_P2;Temp;Humidity;BMP_temperature;BMP_pressure;BME280_temperature;BME280_humidity;BME280_pressure;Samples;Min_cycle;Max_cycle;Signal;HPM_P1;HPM_P2
2022/10/24 00:00:31;;;;;;;8.90;1.75;;;19.00;51.50;;;;;;5078030;28;20492;-76
2022/10/24 00:02:58;;;;;;;10.00;1.90;;;19.00;52.10;;;;;;5095226;28;20036;-77
2022/10/24 00:05:24;;;;;;;9.55;2.10;;;18.90;52.70;;;;;;5094915;28;20039;-76
2022/10/24 00:07:50;;;;;;;10.60;2.30;;;18.80;52.30;;;;;;5095017;28;20027;-76
2022/10/24 00:10:16;;;;;;;10.80;2.58;;;18.90;52.60;;;;;;5094907;28;20024;-76
2022/10/24 00:12:42;;;;;;;15.18;2.70;;;18.90;52.50;;;;;;5094886;28;20044;-77
2022/10/24 00:15:08;;;;;;;14.57;2.58;;;18.80;52.70;;;;;;5094983;28;20051;-77
2022/10/24 00:17:34;;;;;;;7.40;2.20;;;18.80;53.00;;;;;;5095026;28;20049;-77
2022/10/24 00:20:00;;;;;;;17.58;2.67;;;18.70;53.30;;;;;;5095125;28;20027;-77
2022/10/24 00:22:26;;;;;;;13.80;2.38;;;18.70;53.40;;;;;;5094892;28;20123;-77
2022/10/24 00:24:52;;;;;;;13.20;2.58;;;18.80;53.00;;;;;;5094949;28;20518;-77
2022/10/24 00:27:18;;;;;;;17.55;2.88;;;18.80;52.80;;;;;;5094887;28;20070;-77
2022/10/24 00:29:44;;;;;;;11.60;2.90;;;18.90;52.30;;;;;;5094968;28;20024;-77
2022/10/24 00:32:10;;;;;;;13.02;2.45;;;18.90;52.10;;;;;;5094942;28;20495;-77
2022/10/24 00:34:37;;;;;;;10.68;2.30;;;19.00;52.00;;;;;;5094936;28;20021;-77
2022/10/24 00:37:03;;;;;;;9.70;2.78;;;19.00;52.00;;;;;;5094738;28;20552;-77
2022/10/24 00:39:29;;;;;;;12.60;2.75;;;19.00;51.50;;;;;;5094719;28;20036;-77
2022/10/24 00:41:58;;;;;;;11.60;2.78;;;19.10;51.30;;;;;;5095011;28;20029;-77
2022/10/24 00:44:38;;;;;;;9.95;2.55;;;19.20;50.70;;;;;;5094538;28;20031;-77
2022/10/24 00:47:11;;;;;;;13.70;2.85;;;19.30;50.30;;;;;;5094883;28;20029;-77
2022/10/24 00:49:42;;;;;;;16.00;2.60;;;19.30;50.40;;;;;;5094699;28;20016;-77
2022/10/24 00:52:08;;;;;;;10.20;2.33;;;19.30;50.90;;;;;;5094730;28;20025;-77
2022/10/24 00:54:37;;;;;;;13.43;2.33;;;19.20;51.20;;;;;;5094450;28;20384;-77
2022/10/24 00:57:37;;;;;;;16.60;2.75;;;19.20;51.30;;;;;;5094643;28;20028;-77
2022/10/24 01:00:11;;;;;;;13.43;2.60;;;19.10;51.60;;;;;;5033172;28;20063;-77
2022/10/24 01:02:38;;;;;;;11.30;2.70;;;19.10;51.50;;;;;;5091332;28;20064;-77
2022/10/24 01:05:05;;;;;;;14.25;3.13;;;19.20;50.90;;;;;;5091167;28;20033;-77
2022/10/24 01:08:02;;;;;;;13.18;3.22;;;19.30;51.50;;;;;;5091424;28;20105;-77
2022/10/24 01:10:49;;;;;;;13.98;3.00;;;19.30;52.30;;;;;;5091275;28;20074;-76
2022/10/24 01:13:15;;;;;;;15.30;3.58;;;19.40;50.40;;;;;;5074184;28;20084;-76
2022/10/24 01:15:50;;;;;;;17.67;3.05;;;19.40;51.00;;;;;;5074088;28;20086;-76
2022/10/24 01:18:38;;;;;;;12.70;3.10;;;19.30;52.10;;;;;;5091178;28;20107;-76
2022/10/24 01:21:30;;;;;;;18.77;3.72;;;19.20;52.60;;;;;;5074179;28;20111;-76
2022/10/24 01:24:33;;;;;;;13.70;3.17;;;19.20;52.60;;;;;;5090904;28;20052;-76
2022/10/24 01:27:20;;;;;;;9.77;2.72;;;19.00;53.60;;;;;;5074002;28;20063;-76
2022/10/24 01:30:07;;;;;;;15.40;2.63;;;18.80;54.70;;;;;;5074010;28;20042;-77
2022/10/24 01:32:55;;;;;;;18.30;3.75;;;18.70;55.60;;;;;;5090860;28;20382;-76
2022/10/24 01:35:34;;;;;;;14.30;3.28;;;18.60;56.60;;;;;;5073876;28;20017;-76
2022/10/24 01:38:19;;;;;;;12.30;2.50;;;18.60;57.10;;;;;;5090878;28;20393;-76
2022/10/24 01:40:59;;;;;;;17.40;4.00;;;18.50;57.10;;;;;;5073719;28;20494;-76
2022/10/24 01:43:32;;;;;;;12.10;3.35;;;18.40;58.30;;;;;;5090749;28;20369;-76
2022/10/24 01:46:02;;;;;;;11.98;2.90;;;18.30;58.20;;;;;;5090617;28;20503;-77
2022/10/24 01:48:32;;;;;;;18.48;2.80;;;18.30;59.00;;;;;;5090430;28;20028;-77
2022/10/24 01:51:00;;;;;;;9.65;2.30;;;18.20;59.40;;;;;;5090455;28;20110;-77
2022/10/24 01:53:28;;;;;;;9.63;2.80;;;18.20;58.70;;;;;;5057332;28;20025;-77
2022/10/24 01:55:55;;;;;;;10.98;2.95;;;18.20;59.40;;;;;;5090346;28;20032;-77
2022/10/24 01:58:21;;;;;;;12.75;2.38;;;18.10;59.70;;;;;;5090398;28;20036;-77
2022/10/24 02:00:49;;;;;;;15.45;3.83;;;18.10;60.70;;;;;;5090251;28;20046;-76
2022/10/24 02:03:32;;;;;;;14.20;2.20;;;18.00;62.10;;;;;;5090172;28;20028;-76
2022/10/24 02:06:14;;;;;;;11.90;2.42;;;17.90;61.80;;;;;;5073336;28;20078;-76
2022/10/24 02:08:43;;;;;;;8.57;2.45;;;17.80;62.20;;;;;;5073364;28;20027;-76
2022/10/24 02:11:09;;;;;;;11.77;2.60;;;17.70;62.90;;;;;;5089498;28;20025;-76
2022/10/24 02:13:58;;;;;;;14.52;2.67;;;17.70;63.30;;;;;;5089240;28;20053;-76
2022/10/24 02:16:25;;;;;;;11.90;2.50;;;17.70;64.30;;;;;;5090065;28;20033;-76
2022/10/24 02:18:53;;;;;;;15.15;2.50;;;17.60;64.20;;;;;;5090019;28;20027;-77
2022/10/24 02:21:41;;;;;;;10.43;2.22;;;17.50;64.70;;;;;;5089923;28;20451;-76
2022/10/24 02:24:12;;;;;;;9.57;2.40;;;17.50;65.40;;;;;;5089759;28;20503;-77
2022/10/24 02:26:46;;;;;;;10.50;3.40;;;17.40;65.60;;;;;;5073074;28;20091;-77
2022/10/24 02:29:17;;;;;;;12.27;2.40;;;17.40;66.90;;;;;;5072960;28;20048;-76
2022/10/24 02:31:52;;;;;;;8.98;2.60;;;17.30;66.30;;;;;;5089702;28;20028;-76
2022/10/24 02:34:22;;;;;;;13.55;2.67;;;17.30;66.40;;;;;;5089646;28;20028;-76
2022/10/24 02:36:50;;;;;;;12.27;2.55;;;17.20;66.70;;;;;;5089398;28;20127;-76
2022/10/24 02:39:17;;;;;;;12.15;3.03;;;17.20;67.50;;;;;;5089701;28;20027;-77
2022/10/24 02:41:44;;;;;;;13.02;2.33;;;17.20;67.40;;;;;;5089136;28;20032;-76
2022/10/24 02:44:14;;;;;;;16.90;3.33;;;17.10;67.30;;;;;;5073916;28;20097;-76
2022/10/24 02:46:41;;;;;;;10.52;2.75;;;17.10;67.00;;;;;;5089348;28;20112;-76
2022/10/24 02:49:07;;;;;;;12.15;2.65;;;17.10;67.50;;;;;;5072378;28;20051;-76
2022/10/24 02:51:36;;;;;;;16.77;2.70;;;17.10;67.20;;;;;;5089431;28;20484;-76
2022/10/24 02:54:03;;;;;;;8.27;2.28;;;17.00;67.80;;;;;;5089283;28;20391;-77
2022/10/24 02:56:29;;;;;;;11.80;2.28;;;17.00;67.70;;;;;;5089128;28;20040;-76
2022/10/24 02:58:54;;;;;;;12.07;2.17;;;17.00;66.60;;;;;;5089150;28;20082;-76
2022/10/24 03:01:20;;;;;;;14.13;2.55;;;17.10;66.80;;;;;;5089067;28;20024;-76
2022/10/24 03:03:46;;;;;;;8.02;2.38;;;17.10;66.70;;;;;;5088941;28;20504;-76
2022/10/24 03:06:12;;;;;;;9.43;2.47;;;17.00;66.70;;;;;;5088871;28;20396;-76
2022/10/24 03:08:37;;;;;;;11.00;1.75;;;17.00;66.90;;;;;;5088959;28;20125;-76
2022/10/24 03:11:03;;;;;;;12.40;2.58;;;17.00;66.90;;;;;;5088744;28;20051;-76
2022/10/24 03:13:29;;;;;;;10.38;2.53;;;17.00;68.90;;;;;;5088735;28;20068;-76
2022/10/24 03:15:55;;;;;;;13.85;2.42;;;16.90;69.70;;;;;;5088840;28;20068;-76
2022/10/24 03:18:20;;;;;;;15.95;2.30;;;16.80;69.80;;;;;;5088646;28;20488;-76
2022/10/24 03:20:46;;;;;;;13.73;3.13;;;16.70;69.80;;;;;;5088528;28;20469;-76
2022/10/24 03:23:11;;;;;;;8.15;2.65;;;16.70;70.10;;;;;;5088461;28;20028;-76
2022/10/24 03:25:37;;;;;;;13.80;2.58;;;16.70;69.90;;;;;;5088791;28;20121;-76
2022/10/24 03:28:03;;;;;;;15.68;2.53;;;16.70;69.30;;;;;;5088384;28;20029;-76
2022/10/24 03:30:29;;;;;;;7.80;2.17;;;16.70;68.90;;;;;;5088456;28;20022;-76
2022/10/24 03:32:55;;;;;;;9.50;2.05;;;16.80;68.70;;;;;;5088319;28;20077;-76
2022/10/24 03:35:20;;;;;;;9.70;2.42;;;16.80;68.90;;;;;;5071448;28;20054;-76
2022/10/24 03:37:46;;;;;;;12.82;2.30;;;16.80;69.20;;;;;;5088534;28;20506;-76
2022/10/24 03:40:12;;;;;;;9.95;2.40;;;16.80;68.40;;;;;;5088613;28;20028;-76
2022/10/24 03:42:37;;;;;;;10.70;2.72;;;16.80;69.50;;;;;;5088547;28;20017;-76
2022/10/24 03:45:03;;;;;;;11.75;2.72;;;16.70;70.00;;;;;;5088261;28;20500;-76
2022/10/24 03:47:29;;;;;;;8.30;2.30;;;16.70;70.50;;;;;;5088174;28;20101;-76
2022/10/24 03:49:54;;;;;;;11.50;2.50;;;16.60;70.80;;;;;;5088494;28;20067;-76
2022/10/24 03:52:20;;;;;;;7.32;1.95;;;16.60;71.00;;;;;;5088333;28;20025;-76
2022/10/24 03:54:46;;;;;;;10.10;2.63;;;16.60;70.90;;;;;;5088080;28;20036;-76
2022/10/24 03:57:12;;;;;;;12.85;2.95;;;16.50;69.90;;;;;;5087981;28;20039;-76
2022/10/24 03:59:37;;;;;;;10.02;2.38;;;16.60;68.60;;;;;;5088089;28;20157;-76
2022/10/24 04:02:03;;;;;;;12.48;2.80;;;16.80;67.00;;;;;;5087923;28;20028;-76
2022/10/24 04:04:29;;;;;;;11.85;2.45;;;16.90;66.40;;;;;;5088146;28;20049;-76
2022/10/24 04:06:54;;;;;;;7.18;2.25;;;17.00;65.40;;;;;;5087562;28;20036;-76
2022/10/24 04:09:21;;;;;;;4.43;1.70;;;17.10;65.00;;;;;;5088240;28;20021;-76
2022/10/24 04:11:47;;;;;;;10.65;1.90;;;17.10;65.00;;;;;;5072191;28;20032;-76
2022/10/24 04:14:13;;;;;;;7.63;1.90;;;17.20;65.60;;;;;;5054490;28;20358;-76
2022/10/24 04:16:39;;;;;;;10.30;2.13;;;17.10;65.70;;;;;;5054303;28;20028;-76
2022/10/24 04:19:05;;;;;;;6.72;2.17;;;17.00;66.00;;;;;;5054432;28;20389;-76
2022/10/24 04:21:30;;;;;;;11.43;2.03;;;17.00;66.40;;;;;;5054763;28;20025;-76
2022/10/24 04:23:56;;;;;;;8.60;2.08;;;16.90;67.40;;;;;;5071230;28;20031;-78
2022/10/24 04:26:22;;;;;;;7.55;2.22;;;16.70;67.80;;;;;;5072404;28;20013;-76
2022/10/24 04:28:48;;;;;;;8.93;1.75;;;16.70;68.30;;;;;;5054362;28;20024;-76
2022/10/24 04:31:14;;;;;;;10.15;2.17;;;16.60;68.40;;;;;;5054324;28;20123;-77
2022/10/24 04:33:40;;;;;;;4.85;1.80;;;16.60;68.60;;;;;;5054336;28;20024;-77
2022/10/24 04:36:06;;;;;;;10.23;1.98;;;16.60;69.70;;;;;;5056619;28;20036;-77
2022/10/24 04:38:31;;;;;;;8.40;2.42;;;16.40;69.90;;;;;;5058079;28;20027;-77
2022/10/24 04:40:57;;;;;;;9.65;2.10;;;16.40;72.00;;;;;;5076185;28;20024;-77
2022/10/24 04:43:24;;;;;;;5.90;1.85;;;16.30;72.10;;;;;;5058054;28;20035;-77
2022/10/24 04:45:50;;;;;;;6.78;1.80;;;16.30;71.80;;;;;;5057895;28;20025;-77
2022/10/24 04:48:16;;;;;;;7.35;1.60;;;16.30;71.50;;;;;;5058149;28;20048;-77
2022/10/24 04:50:43;;;;;;;8.60;1.80;;;16.30;72.40;;;;;;5057867;28;20025;-78
2022/10/24 04:53:09;;;;;;;8.38;1.98;;;16.20;73.70;;;;;;5057670;28;20025;-77
2022/10/24 04:55:35;;;;;;;5.90;2.08;;;16.10;74.20;;;;;;5057857;28;20023;-77
2022/10/24 04:58:02;;;;;;;12.18;1.73;;;16.10;74.80;;;;;;5057642;28;20177;-77
2022/10/24 05:00:28;;;;;;;7.15;1.73;;;16.00;74.90;;;;;;5057515;28;20031;-77
2022/10/24 05:02:53;;;;;;;8.32;1.83;;;16.00;75.00;;;;;;5057789;28;20032;-77
2022/10/24 05:05:19;;;;;;;9.55;2.08;;;15.90;75.30;;;;;;5057843;28;20016;-77
2022/10/24 05:07:45;;;;;;;7.63;1.70;;;15.90;74.80;;;;;;5057862;28;20024;-77
2022/10/24 05:10:14;;;;;;;12.40;2.03;;;15.90;75.00;;;;;;5074411;28;20115;-77
2022/10/24 05:12:42;;;;;;;8.75;2.17;;;15.90;75.50;;;;;;5057722;28;20155;-77
2022/10/24 05:15:09;;;;;;;7.20;1.85;;;15.80;75.40;;;;;;5075138;28;20476;-77
2022/10/24 05:17:35;;;;;;;5.68;1.60;;;15.80;74.60;;;;;;5057225;28;20143;-77
2022/10/24 05:20:01;;;;;;;9.27;1.90;;;15.90;74.30;;;;;;5057353;28;20130;-77
2022/10/24 05:22:26;;;;;;;5.13;1.60;;;15.90;73.50;;;;;;5057296;28;20025;-77
2022/10/24 05:24:52;;;;;;;10.98;1.83;;;15.90;72.30;;;;;;5056923;28;20029;-77
2022/10/24 05:27:23;;;;;;;9.23;2.35;;;16.10;71.90;;;;;;5057110;28;20111;-77
2022/10/24 05:29:55;;;;;;;10.30;1.70;;;16.20;69.90;;;;;;5056991;28;20021;-77
2022/10/24 05:32:22;;;;;;;8.25;2.40;;;16.40;69.00;;;;;;5056862;28;20024;-77
2022/10/24 05:34:48;;;;;;;7.07;1.98;;;16.50;69.10;;;;;;5073722;28;20021;-77
2022/10/24 05:37:14;;;;;;;5.75;1.70;;;16.40;69.00;;;;;;5057044;28;20086;-77
2022/10/24 05:39:39;;;;;;;9.15;1.77;;;16.40;70.00;;;;;;5055930;28;20092;-77
2022/10/24 05:42:06;;;;;;;7.40;1.67;;;16.40;70.50;;;;;;5056814;28;20443;-77
2022/10/24 05:44:32;;;;;;;9.50;1.98;;;16.30;70.90;;;;;;5056984;28;20187;-77
2022/10/24 05:46:58;;;;;;;6.05;1.40;;;16.40;69.20;;;;;;5056382;28;20545;-78
2022/10/24 05:49:23;;;;;;;13.15;1.80;;;16.40;69.60;;;;;;5056598;28;20380;-76
2022/10/24 05:51:49;;;;;;;7.43;1.83;;;16.40;69.20;;;;;;5056168;28;20029;-76
2022/10/24 05:54:14;;;;;;;9.95;1.80;;;16.40;69.10;;;;;;5056012;28;20021;-76
2022/10/24 05:56:40;;;;;;;8.13;1.77;;;16.50;69.00;;;;;;5055979;28;20477;-77
2022/10/24 05:59:06;;;;;;;5.40;1.65;;;16.50;70.10;;;;;;5056619;28;20040;-76
2022/10/24 06:01:33;;;;;;;8.80;1.80;;;16.40;70.80;;;;;;5056469;28;20362;-76
2022/10/24 06:04:00;;;;;;;7.20;2.00;;;16.40;70.40;;;;;;5074117;28;20029;-77
2022/10/24 06:06:26;;;;;;;6.88;1.42;;;16.40;70.40;;;;;;5072824;28;20032;-77
2022/10/24 06:08:52;;;;;;;8.18;1.50;;;16.40;70.00;;;;;;5056172;28;20025;-78
2022/10/24 06:11:18;;;;;;;8.75;1.65;;;16.40;70.00;;;;;;5056276;28;20066;-77
2022/10/24 06:13:45;;;;;;;5.82;1.70;;;16.50;69.10;;;;;;5071172;28;20044;-77
2022/10/24 06:16:11;;;;;;;9.40;1.90;;;16.50;69.20;;;;;;5089636;28;20025;-77
2022/10/24 06:18:38;;;;;;;8.50;1.95;;;16.60;68.40;;;;;;5089835;28;20146;-76
2022/10/24 06:21:07;;;;;;;5.32;1.25;;;16.60;68.10;;;;;;5089491;28;20468;-77
2022/10/24 06:23:33;;;;;;;9.13;1.60;;;16.50;68.70;;;;;;5089271;28;20033;-76
2022/10/24 06:25:59;;;;;;;5.93;1.23;;;16.50;70.10;;;;;;5089549;28;20082;-78
2022/10/24 06:28:25;;;;;;;6.97;1.33;;;16.30;69.30;;;;;;5089424;28;20028;-76
2022/10/24 06:30:51;;;;;;;6.90;1.63;;;16.30;69.60;;;;;;5089624;28;20020;-78
2022/10/24 06:33:17;;;;;;;5.65;1.52;;;16.40;70.10;;;;;;5073792;28;20199;-79
2022/10/24 06:35:43;;;;;;;3.78;1.30;;;16.40;70.00;;;;;;5089469;28;20017;-77
2022/10/24 06:38:08;;;;;;;4.90;1.30;;;16.30;70.60;;;;;;5089408;28;20028;-77
2022/10/24 06:40:39;;;;;;;7.18;1.70;;;16.30;71.10;;;;;;5089214;28;20158;-77
2022/10/24 06:43:05;;;;;;;5.68;1.42;;;16.30;70.50;;;;;;5089584;28;20111;-77
2022/10/24 06:45:31;;;;;;;7.72;1.80;;;16.30;70.90;;;;;;5089560;28;20433;-77
2022/10/24 06:47:57;;;;;;;7.25;1.52;;;16.30;70.40;;;;;;5089507;28;20115;-77
2022/10/24 06:50:22;;;;;;;3.42;1.15;;;16.40;70.60;;;;;;5088945;28;20178;-77
2022/10/24 06:52:49;;;;;;;9.23;1.55;;;16.30;71.30;;;;;;5055448;28;20124;-77
2022/10/24 06:55:15;;;;;;;9.23;1.90;;;16.30;72.30;;;;;;5073680;28;20024;-78
2022/10/24 06:57:41;;;;;;;6.85;1.48;;;16.30;72.40;;;;;;5088233;28;20039;-78
2022/10/24 07:00:08;;;;;;;9.32;1.50;;;16.20;72.40;;;;;;5073334;28;20025;-77
2022/10/24 07:02:34;;;;;;;5.28;1.40;;;16.20;73.40;;;;;;5088917;28;20029;-77
2022/10/24 07:04:59;;;;;;;7.43;1.90;;;16.20;74.20;;;;;;5088859;28;20023;-78
2022/10/24 07:07:25;;;;;;;8.98;1.90;;;16.10;75.30;;;;;;5088744;28;20097;-77
2022/10/24 07:09:56;;;;;;;7.95;1.90;;;16.00;75.70;;;;;;5088654;28;20112;-77
2022/10/24 07:12:22;;;;;;;9.35;1.95;;;16.00;76.90;;;;;;5088888;28;20101;-78
2022/10/24 07:14:48;;;;;;;8.05;2.05;;;15.80;76.70;;;;;;5071802;28;20036;-78
2022/10/24 07:17:16;;;;;;;11.32;1.65;;;15.80;77.20;;;;;;5088667;28;20033;-78
2022/10/24 07:19:41;;;;;;;6.68;1.65;;;15.70;77.40;;;;;;5088699;28;20103;-78
2022/10/24 07:22:07;;;;;;;9.00;1.95;;;15.70;77.70;;;;;;5088540;28;20027;-79
2022/10/24 07:24:33;;;;;;;6.43;1.58;;;15.50;78.10;;;;;;5088475;28;20400;-78
2022/10/24 07:26:59;;;;;;;6.20;2.40;;;15.50;78.60;;;;;;5088809;28;20115;-78
2022/10/24 07:29:25;;;;;;;9.45;1.75;;;15.50;78.70;;;;;;5054948;28;20029;-77
2022/10/24 07:31:52;;;;;;;5.80;1.55;;;15.50;78.80;;;;;;5088498;28;20029;-78
2022/10/24 07:34:17;;;;;;;4.78;1.60;;;15.50;78.80;;;;;;5088519;28;20024;-78
2022/10/24 07:36:43;;;;;;;8.57;1.80;;;15.60;78.20;;;;;;5088270;28;20032;-77
2022/10/24 07:39:09;;;;;;;8.95;2.20;;;15.60;78.40;;;;;;5088531;28;20465;-77
2022/10/24 07:44:21;;;;;;;6.03;1.63;;;15.60;78.50;;;;;;5072747;28;20111;-77
2022/10/24 07:46:47;;;;;;;8.88;1.58;;;15.60;78.50;;;;;;5088296;28;20452;-77
2022/10/24 07:49:13;;;;;;;6.95;1.67;;;15.60;78.70;;;;;;5088320;28;20051;-77
2022/10/24 07:51:40;;;;;;;4.88;1.52;;;15.60;78.70;;;;;;5088583;28;20021;-77
2022/10/24 07:54:06;;;;;;;6.43;1.48;;;15.60;79.00;;;;;;5088803;28;20028;-77
2022/10/24 07:56:32;;;;;;;3.72;1.52;;;15.60;79.00;;;;;;5072819;28;20039;-77
2022/10/24 07:58:59;;;;;;;8.45;1.55;;;15.70;79.00;;;;;;5088484;28;20032;-77
2022/10/24 08:01:26;;;;;;;10.43;2.25;;;15.70;79.10;;;;;;5072928;28;20024;-79
2022/10/24 08:03:52;;;;;;;8.75;1.63;;;15.70;79.20;;;;;;5088323;28;20024;-75
2022/10/24 08:06:24;;;;;;;3.05;1.35;;;15.80;79.00;;;;;;5088219;28;20469;-77
2022/10/24 08:08:50;;;;;;;6.07;1.42;;;15.90;78.70;;;;;;5072913;28;20134;-76
2022/10/24 08:11:21;;;;;;;5.30;1.35;;;16.00;78.40;;;;;;5092393;28;20181;-77
2022/10/24 08:13:48;;;;;;;7.57;1.88;;;16.00;78.30;;;;;;5092167;28;20090;-77
2022/10/24 08:16:15;;;;;;;8.50;1.85;;;16.00;77.30;;;;;;5091710;28;20041;-77
2022/10/24 08:18:42;;;;;;;9.98;1.83;;;16.00;77.00;;;;;;5075313;28;20029;-78
2022/10/24 08:21:11;;;;;;;4.90;1.40;;;16.00;77.30;;;;;;5076659;28;20500;-77
2022/10/24 08:23:39;;;;;;;7.93;2.00;;;16.00;77.40;;;;;;5075138;28;20024;-78
2022/10/24 08:26:06;;;;;;;6.10;1.25;;;16.00;77.50;;;;;;5091934;28;20027;-78
2022/10/24 08:28:32;;;;;;;5.88;1.23;;;16.00;77.60;;;;;;5092006;28;20029;-77
2022/10/24 08:31:04;;;;;;;5.70;1.60;;;15.90;77.80;;;;;;5091510;28;20024;-77
2022/10/24 08:33:30;;;;;;;4.13;1.25;;;15.80;76.20;;;;;;5092004;28;20358;-78
2022/10/24 08:36:02;;;;;;;7.13;2.00;;;15.90;76.90;;;;;;5092033;28;20495;-76
2022/10/24 08:38:28;;;;;;;5.97;1.27;;;15.90;77.40;;;;;;5091937;28;20044;-77
2022/10/24 08:40:57;;;;;;;8.15;1.67;;;15.80;78.00;;;;;;5091798;28;20025;-78
2022/10/24 08:43:24;;;;;;;7.07;1.52;;;15.80;78.00;;;;;;5057974;28;20475;-77
2022/10/24 08:46:02;;;;;;;10.00;2.20;;;15.80;79.10;;;;;;5091717;28;20025;-79
2022/10/24 08:48:35;;;;;;;7.53;2.15;;;15.80;80.20;;;;;;5074527;28;20085;-78
2022/10/24 08:51:33;;;;;;;5.63;1.73;;;15.60;81.30;;;;;;5090931;28;20089;-77
2022/10/24 08:54:00;;;;;;;6.72;2.50;;;15.50;81.60;;;;;;5091243;28;20032;-77
2022/10/24 08:56:30;;;;;;;6.82;2.13;;;15.50;82.40;;;;;;5091313;28;20065;-78
2022/10/24 08:58:58;;;;;;;2.95;1.50;;;15.40;82.50;;;;;;5075868;28;20093;-78
2022/10/24 09:01:45;;;;;;;5.97;1.88;;;15.30;82.10;;;;;;5074497;28;20142;-77
2022/10/24 09:04:15;;;;;;;3.92;1.50;;;15.10;81.90;;;;;;5075643;28;20030;-78
2022/10/24 09:06:41;;;;;;;5.50;1.67;;;15.10;81.60;;;;;;5091184;28;20032;-77
2022/10/24 09:09:38;;;;;;;6.90;1.65;;;15.10;78.80;;;;;;5091456;28;20145;-77
2022/10/24 09:12:12;;;;;;;8.50;1.58;;;15.30;78.50;;;;;;5072625;28;20504;-77
2022/10/24 09:14:41;;;;;;;9.13;1.70;;;15.30;77.70;;;;;;5090749;28;20389;-78
2022/10/24 09:17:20;;;;;;;8.00;1.45;;;15.20;78.10;;;;;;5090833;28;20041;-78
2022/10/24 09:19:56;;;;;;;6.03;1.92;;;15.20;78.50;;;;;;5073726;28;20115;-77
2022/10/24 09:22:24;;;;;;;3.35;1.10;;;15.10;78.60;;;;;;5090178;28;20028;-78
2022/10/24 09:25:06;;;;;;;5.28;1.02;;;15.00;78.70;;;;;;5090632;28;20116;-78
2022/10/24 09:27:34;;;;;;;6.93;1.23;;;15.00;77.50;;;;;;5090075;28;20059;-78
2022/10/24 09:30:01;;;;;;;6.60;1.20;;;14.90;78.80;;;;;;5090418;28;20112;-76
2022/10/24 09:32:29;;;;;;;10.00;1.20;;;14.80;79.20;;;;;;5090179;28;20119;-77
2022/10/24 09:35:00;;;;;;;6.35;1.23;;;14.70;80.20;;;;;;5074840;28;20033;-78
2022/10/24 09:37:29;;;;;;;4.38;1.20;;;14.70;81.30;;;;;;5073367;28;20090;-77
2022/10/24 09:40:18;;;;;;;4.80;1.20;;;14.70;78.80;;;;;;5075092;28;20020;-77
2022/10/24 09:43:15;;;;;;;3.92;1.23;;;14.70;78.70;;;;;;5075048;28;20018;-77
2022/10/24 09:45:43;;;;;;;;;;;14.60;81.30;;;;;;5073169;28;20091;-77
2022/10/24 09:48:22;;;;;;;5.05;0.88;;;14.60;80.70;;;;;;5073311;28;19904;-76
2022/10/24 09:50:50;;;;;;;3.42;1.15;;;14.50;82.30;;;;;;5090414;28;20103;-76
2022/10/24 09:53:27;;;;;;;3.15;1.20;;;14.50;81.70;;;;;;5090352;28;20028;-77
2022/10/24 09:55:59;;;;;;;4.63;1.13;;;14.40;82.30;;;;;;5090075;28;20020;-78
2022/10/24 09:58:31;;;;;;;3.78;0.95;;;14.40;77.20;;;;;;5073051;28;20020;-76
2022/10/24 10:01:17;;;;;;;2.53;1.10;;;14.50;77.20;;;;;;5073659;28;20100;-77
2022/10/24 10:03:58;;;;;;;4.03;1.33;;;14.50;79.00;;;;;;5090241;28;20128;-78
2022/10/24 10:06:24;;;;;;;3.08;1.27;;;14.50;79.80;;;;;;5089946;28;20086;-78
2022/10/24 10:08:53;;;;;;;6.43;1.40;;;14.50;81.30;;;;;;5073895;28;20028;-77
2022/10/24 10:11:30;;;;;;;6.07;1.73;;;14.40;82.10;;;;;;5074469;28;20021;-77
2022/10/24 10:13:59;;;;;;;3.28;1.15;;;14.40;81.90;;;;;;5089496;28;20370;-78
2022/10/24 10:16:37;;;;;;;6.10;1.00;;;14.40;81.80;;;;;;5072657;28;20037;-77
2022/10/24 10:19:14;;;;;;;5.28;1.20;;;14.50;82.00;;;;;;5089878;28;20028;-78
2022/10/24 10:22:04;;;;;;;5.38;1.60;;;14.50;82.90;;;;;;5089499;28;20021;-77
2022/10/24 10:24:42;;;;;;;4.82;1.23;;;14.50;83.30;;;;;;5089571;28;20025;-77
2022/10/24 10:27:36;;;;;;;5.03;1.33;;;14.50;82.70;;;;;;5089619;28;20066;-76
2022/10/24 10:30:11;;;;;;;3.53;1.38;;;14.60;80.70;;;;;;5089694;28;20539;-78
2022/10/24 10:32:58;;;;;;;5.25;1.50;;;14.70;80.50;;;;;;5071650;28;20025;-79
2022/10/24 10:35:57;;;;;;;3.95;0.80;;;14.70;79.60;;;;;;5089616;28;20028;-76
2022/10/24 10:38:50;;;;;;;6.28;1.33;;;14.70;80.70;;;;;;5074177;28;20035;-79
2022/10/24 10:41:42;;;;;;;2.88;0.90;;;14.70;80.70;;;;;;5072605;28;20027;-78
2022/10/24 10:44:35;;;;;;;4.95;1.00;;;14.70;80.00;;;;;;5089393;28;20052;-78
2022/10/24 10:47:10;;;;;;;9.48;1.20;;;14.70;80.30;;;;;;5072962;28;20027;-78
2022/10/24 10:49:41;;;;;;;3.92;1.20;;;14.60;82.60;;;;;;5089354;28;20539;-78
2022/10/24 10:52:12;;;;;;;1.60;0.70;;;14.60;82.00;;;;;;5071782;28;20048;-76
2022/10/24 10:55:05;;;;;;;2.15;0.63;;;14.50;81.20;;;;;;5071751;28;20028;-77
2022/10/24 10:57:55;;;;;;;3.03;0.52;;;14.50;81.00;;;;;;5071959;28;20048;-78
2022/10/24 11:00:49;;;;;;;2.45;0.77;;;14.50;79.30;;;;;;5073034;28;20061;-78
2022/10/24 11:03:18;;;;;;;2.22;0.60;;;14.50;79.70;;;;;;5067282;28;20084;-79
2022/10/24 11:06:04;;;;;;;0.88;0.45;;;14.50;80.00;;;;;;5073265;28;20036;-79
2022/10/24 11:09:05;;;;;;;2.08;0.50;;;14.50;79.60;;;;;;5088848;28;20021;-77
2022/10/24 11:11:34;;;;;;;2.28;0.57;;;14.50;80.90;;;;;;5064647;28;20033;-76
2022/10/24 11:14:25;;;;;;;2.42;0.60;;;14.60;80.60;;;;;;5088507;28;20051;-77
2022/10/24 11:16:55;;;;;;;0.90;0.60;;;14.50;80.90;;;;;;5071673;28;20029;-76
2022/10/24 11:19:34;;;;;;;2.05;0.60;;;14.60;80.50;;;;;;5088728;28;20032;-79
2022/10/24 11:22:03;;;;;;;4.45;1.15;;;14.60;78.20;;;;;;5088562;28;20020;-76
2022/10/24 11:24:36;;;;;;;1.27;0.65;;;14.70;78.30;;;;;;5088274;28;20027;-77
2022/10/24 11:27:15;;;;;;;1.67;0.80;;;14.70;78.60;;;;;;5073091;28;20469;-77
2022/10/24 11:29:59;;;;;;;2.80;0.77;;;14.80;78.80;;;;;;5088358;28;20031;-77
2022/10/24 11:33:06;;;;;;;4.18;0.68;;;14.70;79.30;;;;;;5087760;28;20477;-78
2022/10/24 11:35:33;;;;;;;2.42;0.47;;;14.80;78.10;;;;;;5072520;28;20031;-78
2022/10/24 11:38:11;;;;;;;2.15;0.70;;;14.80;76.60;;;;;;5088469;28;20036;-77
2022/10/24 11:40:40;;;;;;;2.92;0.70;;;14.90;77.30;;;;;;5072673;28;20021;-77
2022/10/24 11:43:20;;;;;;;2.25;0.77;;;15.00;77.20;;;;;;5088216;28;20077;-78
2022/10/24 11:46:01;;;;;;;2.38;0.80;;;15.10;76.80;;;;;;5071067;28;20036;-78
2022/10/24 11:48:44;;;;;;;2.25;0.80;;;15.10;75.50;;;;;;5071441;28;20029;-78
2022/10/24 11:51:39;;;;;;;1.50;0.55;;;15.20;74.60;;;;;;5088618;28;20350;-78
2022/10/24 11:54:30;;;;;;;3.40;0.80;;;15.30;73.90;;;;;;5070992;28;20036;-78
2022/10/24 11:57:01;;;;;;;0.88;0.50;;;15.40;72.10;;;;;;5070639;28;20052;-77
2022/10/24 11:59:29;;;;;;;1.73;0.40;;;15.50;71.70;;;;;;5088647;28;20430;-79
2022/10/24 12:01:55;;;;;;;2.03;0.60;;;15.70;70.80;;;;;;5088657;28;20031;-78
2022/10/24 12:04:35;;;;;;;1.50;0.50;;;15.70;70.20;;;;;;5072812;28;20017;-77
2022/10/24 12:07:26;;;;;;;1.70;0.68;;;15.80;69.70;;;;;;5073111;28;20089;-79
2022/10/24 12:09:51;;;;;;;3.00;0.63;;;15.80;69.10;;;;;;5071812;28;20028;-78
2022/10/24 12:12:46;;;;;;;1.90;0.68;;;15.80;68.80;;;;;;5071236;28;20136;-77
2022/10/24 12:15:23;;;;;;;3.25;0.63;;;15.80;67.80;;;;;;5071438;28;20023;-77
2022/10/24 12:18:03;;;;;;;2.55;1.00;;;15.90;68.60;;;;;;5071192;28;20033;-76
2022/10/24 12:20:30;;;;;;;1.52;0.70;;;15.80;68.90;;;;;;5072647;28;20024;-77
2022/10/24 12:22:56;;;;;;;2.13;0.88;;;15.70;68.60;;;;;;5087939;28;20024;-78
2022/10/24 12:25:36;;;;;;;3.03;0.95;;;15.60;68.70;;;;;;5072680;28;20029;-78
2022/10/24 12:28:16;;;;;;;1.67;0.70;;;15.60;69.00;;;;;;5088212;28;20020;-77
2022/10/24 12:30:42;;;;;;;4.43;0.70;;;15.60;69.00;;;;;;5088577;28;20031;-78
2022/10/24 12:33:27;;;;;;;4.75;1.10;;;15.60;68.70;;;;;;5072902;28;20115;-77
2022/10/24 12:35:57;;;;;;;3.63;1.23;;;15.70;69.10;;;;;;5088324;28;20060;-78
2022/10/24 12:38:25;;;;;;;3.65;1.02;;;15.70;68.80;;;;;;5072620;28;20033;-78
2022/10/24 12:40:56;;;;;;;1.67;0.63;;;15.70;69.20;;;;;;5072305;28;20013;-76
2022/10/24 12:43:31;;;;;;;1.77;0.80;;;15.70;68.30;;;;;;5087575;28;20479;-77
2022/10/24 12:46:00;;;;;;;2.85;0.85;;;15.80;68.80;;;;;;5071152;28;20028;-78
2022/10/24 12:48:30;;;;;;;4.43;0.90;;;15.80;68.20;;;;;;5087474;28;20031;-77
2022/10/24 12:51:02;;;;;;;3.60;0.88;;;16.00;68.70;;;;;;5070675;28;20418;-77
2022/10/24 12:53:38;;;;;;;2.97;0.70;;;16.00;69.20;;;;;;5070653;28;20476;-78
2022/10/24 12:56:11;;;;;;;1.88;0.65;;;16.00;68.60;;;;;;5071548;28;20488;-76
2022/10/24 12:58:39;;;;;;;3.13;0.85;;;16.00;68.70;;;;;;5091196;28;20395;-77
2022/10/24 13:01:10;;;;;;;2.78;0.60;;;16.00;68.70;;;;;;5091358;28;20021;-77
2022/10/24 13:03:54;;;;;;;2.65;0.60;;;16.00;69.00;;;;;;5074141;28;20025;-77
2022/10/24 13:06:43;;;;;;;4.82;0.70;;;16.00;69.20;;;;;;5074396;28;20032;-75